Time;durP1;ratioP1;P1;durP2;ratioP2;P2;SDS_P1;SDS_P2;PMS_P1;PMS_P2;Temp;Humidity;BMP_temperature;BMP_pressure;BME280_temperature;BME280_humidity;BME280_pressure;Samples;Min_cycle;Max_cycle;Signal;HPM_P1;HPM_P2
2021/09/07 00:02:11;;;;;;;12.50;8.90;;;;;;;13.34;53.27;102462.00;4984020;28;20095;-69
2021/09/07 00:04:36;;;;;;;7.25;5.18;;;;;;;13.51;52.85;102469.41;4998674;28;20034;-69
2021/09/07 00:07:02;;;;;;;12.82;8.82;;;;;;;13.56;52.71;102459.63;4983982;28;20034;-68
2021/09/07 00:09:28;;;;;;;12.32;7.40;;;;;;;13.66;52.60;102460.28;4986489;28;20068;-70
2021/09/07 00:11:55;;;;;;;16.77;10.27;;;;;;;13.65;52.05;102462.06;4988356;28;20564;-69
2021/09/07 00:14:21;;;;;;;14.88;9.88;;;;;;;13.64;52.46;102460.34;4987475;28;20106;-69
2021/09/07 00:16:47;;;;;;;12.38;8.23;;;;;;;13.70;52.65;102456.69;4988761;28;20121;-70
2021/09/07 00:19:13;;;;;;;11.35;7.93;;;;;;;13.77;52.57;102455.59;4986394;28;20030;-68
2021/09/07 00:21:39;;;;;;;12.75;8.80;;;;;;;13.78;52.56;102451.19;4986239;28;20034;-69
2021/09/07 00:24:04;;;;;;;11.45;7.85;;;;;;;13.82;52.47;102456.31;4989429;28;20046;-68
2021/09/07 00:26:30;;;;;;;16.80;10.30;;;;;;;13.77;52.32;102455.59;4986784;28;20038;-68
2021/09/07 00:28:55;;;;;;;16.58;10.05;;;;;;;13.74;52.79;102445.16;4990908;28;20030;-70
2021/09/07 00:31:21;;;;;;;16.52;9.38;;;;;;;13.79;52.62;102445.06;4987176;28;20042;-68
2021/09/07 00:33:46;;;;;;;14.43;8.27;;;;;;;13.93;52.49;102438.47;4986733;28;20041;-67
2021/09/07 00:36:12;;;;;;;19.38;10.25;;;;;;;13.90;52.17;102440.34;4985640;28;20133;-68
2021/09/07 00:38:38;;;;;;;14.35;8.68;;;;;;;13.86;52.61;102434.31;4987988;28;20396;-69
2021/09/07 00:41:04;;;;;;;16.27;9.80;;;;;;;13.88;52.43;102434.28;4986455;28;20030;-69
2021/09/07 00:43:29;;;;;;;14.23;10.57;;;;;;;13.70;52.28;102438.28;4985190;28;20084;-68
2021/09/07 00:45:55;;;;;;;16.35;10.15;;;;;;;13.71;52.47;102438.22;4987949;28;20038;-69
2021/09/07 00:48:20;;;;;;;14.48;9.82;;;;;;;13.66;52.90;102442.75;4987366;28;20045;-69
2021/09/07 00:50:46;;;;;;;15.32;9.82;;;;;;;13.63;52.79;102442.84;4987549;28;20045;-68
2021/09/07 00:53:12;;;;;;;19.88;10.05;;;;;;;13.60;52.88;102444.69;4985474;28;20054;-67
2021/09/07 00:55:38;;;;;;;14.38;8.90;;;;;;;13.76;53.00;102442.50;4989799;28;20034;-68
2021/09/07 00:58:05;;;;;;;15.15;9.70;;;;;;;13.75;52.91;102449.53;4987035;28;20050;-68
2021/09/07 01:00:31;;;;;;;14.20;10.43;;;;;;;13.92;52.21;102452.53;4986611;28;20034;-69
2021/09/07 01:02:56;;;;;;;15.20;8.77;;;;;;;14.02;51.99;102453.13;4987684;28;20037;-68
2021/09/07 01:05:23;;;;;;;18.25;11.00;;;;;;;13.92;52.14;102449.06;4987236;28;20149;-69
2021/09/07 01:07:50;;;;;;;14.48;10.40;;;;;;;13.82;52.61;102443.19;4988015;28;20034;-69
2021/09/07 01:10:16;;;;;;;19.80;12.10;;;;;;;13.73;52.60;102440.81;4987584;28;20042;-68
2021/09/07 01:12:44;;;;;;;16.52;10.30;;;;;;;13.69;52.84;102436.56;5001386;28;20034;-68
2021/09/07 01:15:10;;;;;;;14.75;9.80;;;;;;;13.75;52.72;102439.00;4986400;28;20061;-68
2021/09/07 01:17:36;;;;;;;12.85;10.00;;;;;;;13.82;52.58;102445.81;4985270;28;20554;-67
2021/09/07 01:20:04;;;;;;;15.63;10.02;;;;;;;13.81;52.38;102436.22;4987592;28;20382;-68
2021/09/07 01:22:30;;;;;;;15.75;9.35;;;;;;;13.68;52.63;102442.72;4986792;28;20041;-68
2021/09/07 01:24:55;;;;;;;12.82;8.52;;;;;;;13.61;52.52;102443.81;4986254;28;20130;-69
2021/09/07 01:27:22;;;;;;;18.55;8.98;;;;;;;13.58;52.86;102438.63;4986714;28;20602;-67
2021/09/07 01:29:48;;;;;;;13.07;8.40;;;;;;;13.55;52.80;102434.28;4985771;28;20096;-69
2021/09/07 01:32:16;;;;;;;11.93;8.70;;;;;;;13.50;52.85;102436.19;4985393;28;20034;-68
2021/09/07 01:34:42;;;;;;;14.57;9.07;;;;;;;13.45;52.88;102436.31;4988329;28;20030;-69
2021/09/07 01:37:08;;;;;;;15.68;9.25;;;;;;;13.47;53.13;102434.50;4986258;28;20034;-67
2021/09/07 01:39:34;;;;;;;12.05;9.18;;;;;;;13.44;53.30;102437.19;4987254;28;20038;-68
2021/09/07 01:42:00;;;;;;;13.05;9.00;;;;;;;13.43;53.10;102425.00;5001263;28;20039;-68
2021/09/07 01:44:25;;;;;;;12.15;8.80;;;;;;;13.44;53.10;102426.69;4988733;28;20549;-67
2021/09/07 01:46:51;;;;;;;12.48;7.85;;;;;;;13.51;53.15;102428.25;4986571;28;20113;-68
2021/09/07 01:49:17;;;;;;;13.55;8.18;;;;;;;13.64;53.10;102428.81;5019618;23;20139;-71
2021/09/07 01:51:44;;;;;;;12.75;7.85;;;;;;;13.67;52.78;102439.25;5059858;28;20033;-71
2021/09/07 01:54:11;;;;;;;13.60;8.20;;;;;;;13.75;52.68;102435.53;5067039;28;20040;-71
2021/09/07 01:56:40;;;;;;;14.35;9.23;;;;;;;13.78;52.60;102431.03;5060840;28;20473;-71
2021/09/07 01:59:06;;;;;;;17.17;9.35;;;;;;;13.88;51.99;102426.38;5062483;28;20033;-71
2021/09/07 02:01:31;;;;;;;13.98;10.35;;;;;;;13.72;52.01;102418.94;5061637;28;20029;-71
2021/09/07 02:03:58;;;;;;;13.60;9.05;;;;;;;13.78;52.03;102432.81;5065870;28;20530;-71
2021/09/07 02:06:24;;;;;;;13.68;8.88;;;;;;;13.79;51.82;102432.78;5060481;28;20029;-71
2021/09/07 02:08:51;;;;;;;15.23;9.07;;;;;;;13.69;52.48;102424.28;5063393;28;20082;-71
2021/09/07 02:11:17;;;;;;;18.63;9.82;;;;;;;13.70;52.02;102422.53;5061265;28;20041;-71
2021/09/07 02:13:43;;;;;;;15.32;9.70;;;;;;;13.77;52.20;102415.31;5060783;28;20028;-71
2021/09/07 02:16:09;;;;;;;16.25;9.98;;;;;;;13.65;52.19;102424.41;5066128;28;20032;-71
2021/09/07 02:18:35;;;;;;;17.30;10.55;;;;;;;13.67;52.50;102423.47;5046010;28;20074;-71
2021/09/07 02:21:01;;;;;;;22.23;12.02;;;;;;;13.69;52.25;102431.28;5060272;28;20513;-71
2021/09/07 02:23:28;;;;;;;16.38;9.60;;;;;;;13.79;52.49;102429.28;5062095;28;20039;-71
2021/09/07 02:25:54;;;;;;;15.52;9.30;;;;;;;13.87;52.13;102433.38;5062779;28;20033;-71
2021/09/07 02:28:20;;;;;;;20.67;12.45;;;;;;;13.83;52.01;102423.91;5059352;28;20095;-70
2021/09/07 02:30:46;;;;;;;19.02;11.20;;;;;;;13.74;52.13;102424.13;5062777;28;20028;-71
2021/09/07 02:33:13;;;;;;;19.38;12.20;;;;;;;13.64;52.50;102423.53;5059010;28;20029;-71
2021/09/07 02:35:39;;;;;;;18.48;11.55;;;;;;;13.67;52.94;102423.47;5061301;28;20024;-71
2021/09/07 02:38:04;;;;;;;18.85;12.60;;;;;;;13.70;52.89;102427.78;5069544;28;20029;-71
2021/09/07 02:40:31;;;;;;;22.08;13.05;;;;;;;13.70;52.64;102422.53;5080963;28;20115;-71
2021/09/07 02:42:58;;;;;;;18.85;12.07;;;;;;;13.76;52.92;102427.59;5061699;28;20048;-71
2021/09/07 02:45:25;;;;;;;21.13;12.68;;;;;;;13.76;52.95;102424.97;5065012;28;20098;-70
2021/09/07 02:47:53;;;;;;;23.73;13.38;;;;;;;13.79;52.77;102426.66;5064641;28;20029;-71
2021/09/07 02:50:20;;;;;;;19.85;12.95;;;;;;;13.89;52.72;102426.31;5059881;28;20032;-71
2021/09/07 02:52:46;;;;;;;15.20;10.18;;;;;;;13.96;52.61;102421.75;5043991;28;20039;-71
2021/09/07 02:55:13;;;;;;;23.38;12.43;;;;;;;14.01;52.44;102421.59;5047033;28;20071;-71
2021/09/07 02:57:38;;;;;;;15.02;10.63;;;;;;;14.06;52.66;102424.97;5065913;28;20037;-71
2021/09/07 03:00:05;;;;;;;28.05;12.75;;;;;;;14.01;52.44;102427.75;5045014;28;20044;-71
2021/09/07 03:02:30;;;;;;;13.43;9.90;;;;;;;14.07;52.24;102426.69;5058714;28;20024;-71
2021/09/07 03:04:56;;;;;;;20.10;11.25;;;;;;;14.16;51.93;102431.66;5062442;28;20054;-71
2021/09/07 03:07:22;;;;;;;17.73;12.20;;;;;;;14.28;51.63;102430.44;5059321;28;20029;-71
2021/09/07 03:09:48;;;;;;;17.13;11.00;;;;;;;14.25;51.83;102420.84;5061542;28;20506;-71
2021/09/07 03:12:14;;;;;;;19.58;12.77;;;;;;;14.09;51.64;102419.63;5062806;28;20104;-71
2021/09/07 03:14:42;;;;;;;20.70;12.07;;;;;;;14.16;51.77;102429.03;5063091;28;20025;-71
2021/09/07 03:17:07;;;;;;;19.75;13.32;;;;;;;14.11;51.76;102413.41;5059378;28;20183;-71
2021/09/07 03:19:34;;;;;;;21.83;13.07;;;;;;;14.06;51.93;102417.09;5061383;28;20087;-71
2021/09/07 03:21:59;;;;;;;21.83;12.70;;;;;;;14.00;52.03;102417.25;5045950;28;20389;-71
2021/09/07 03:24:26;;;;;;;21.95;13.35;;;;;;;13.97;52.44;102420.00;5059314;28;20033;-71
2021/09/07 03:26:52;;;;;;;23.52;12.13;;;;;;;13.96;52.41;102428.78;5061378;28;20417;-71
2021/09/07 03:29:18;;;;;;;25.10;14.23;;;;;;;13.90;52.42;102417.53;5063830;28;20106;-71
2021/09/07 03:31:44;;;;;;;22.77;14.43;;;;;;;13.91;52.49;102416.63;5063850;28;20032;-71
2021/09/07 03:34:11;;;;;;;24.23;15.20;;;;;;;13.91;52.57;102419.25;5060359;28;20036;-71
2021/09/07 03:36:37;;;;;;;25.63;15.02;;;;;;;13.85;53.07;102414.19;5058092;28;20064;-70
2021/09/07 03:39:04;;;;;;;26.45;15.07;;;;;;;13.85;53.07;102408.94;5063106;28;20028;-70
2021/09/07 03:41:29;;;;;;;21.23;13.45;;;;;;;13.90;52.82;102414.91;5064043;28;20035;-70
2021/09/07 03:43:55;;;;;;;26.83;16.00;;;;;;;13.94;52.74;102416.56;5061118;28;20412;-71
2021/09/07 03:46:22;;;;;;;18.55;12.85;;;;;;;14.07;52.51;102405.66;5064356;28;20032;-71
2021/09/07 03:48:48;;;;;;;24.42;14.23;;;;;;;14.07;52.52;102416.16;5061980;28;20509;-71
2021/09/07 03:51:14;;;;;;;20.67;12.90;;;;;;;14.06;52.65;102410.06;5057099;28;20069;-71
2021/09/07 03:53:40;;;;;;;23.48;14.00;;;;;;;14.08;52.83;102399.50;5059926;28;20055;-71
2021/09/07 03:56:06;;;;;;;23.83;15.07;;;;;;;14.07;52.78;102408.28;5060259;28;20037;-71
2021/09/07 03:58:32;;;;;;;22.02;14.25;;;;;;;14.10;52.79;102408.22;5058244;28;20083;-71
2021/09/07 04:00:58;;;;;;;22.45;14.68;;;;;;;14.10;52.36;102416.09;5057950;28;20145;-70
2021/09/07 04:03:24;;;;;;;24.63;14.13;;;;;;;14.04;52.69;102405.75;5062255;28;20055;-71
2021/09/07 04:05:50;;;;;;;27.23;15.90;;;;;;;14.07;52.84;102411.75;5068841;28;20541;-71
2021/09/07 04:08:15;;;;;;;21.65;13.50;;;;;;;14.08;52.86;102407.38;5060844;28;20025;-71
2021/09/07 04:10:43;;;;;;;19.98;12.63;;;;;;;14.15;52.58;102409.78;5059091;28;20037;-71
2021/09/07 04:13:08;;;;;;;26.67;15.43;;;;;;;14.14;52.46;102408.06;5061587;28;20459;-71
2021/09/07 04:15:34;;;;;;;28.10;16.48;;;;;;;14.15;52.34;102406.28;5062702;28;20036;-71
2021/09/07 04:18:00;;;;;;;25.80;15.60;;;;;;;14.18;52.50;102416.69;5059275;28;20036;-71
2021/09/07 04:20:26;;;;;;;28.70;17.73;;;;;;;14.18;52.26;102416.69;5062614;28;20020;-71
2021/09/07 04:22:52;;;;;;;33.40;17.27;;;;;;;14.04;52.58;102411.88;5043609;28;20032;-71
2021/09/07 04:25:18;;;;;;;33.65;17.10;;;;;;;13.92;53.16;102412.25;5046339;28;20777;-71
2021/09/07 04:27:43;;;;;;;27.98;16.13;;;;;;;14.02;53.20;102412.81;5043027;28;20047;-71
2021/09/07 04:30:10;;;;;;;25.45;15.35;;;;;;;14.11;53.20;102415.19;5059373;28;20033;-71
2021/09/07 04:32:35;;;;;;;29.75;17.35;;;;;;;14.07;53.18;102410.91;5060879;28;20036;-71
2021/09/07 04:35:02;;;;;;;25.02;14.88;;;;;;;14.21;53.19;102418.38;5056851;28;20078;-71
2021/09/07 04:37:27;;;;;;;30.58;16.50;;;;;;;14.20;52.79;102412.25;5060093;28;20056;-71
2021/09/07 04:39:53;;;;;;;26.98;15.23;;;;;;;14.24;53.07;102413.03;5040416;28;20029;-71
2021/09/07 04:42:19;;;;;;;24.00;15.82;;;;;;;14.31;52.94;102414.56;5060636;28;20036;-71
2021/09/07 04:44:46;;;;;;;27.80;17.17;;;;;;;14.36;52.65;102413.47;5043571;28;20024;-71
2021/09/07 04:47:13;;;;;;;35.95;17.02;;;;;;;14.30;52.57;102413.69;5057927;28;20036;-71
2021/09/07 04:49:39;;;;;;;33.00;16.58;;;;;;;14.32;52.69;102411.88;5041195;28;20040;-71
2021/09/07 04:52:06;;;;;;;21.77;14.13;;;;;;;14.32;52.93;102419.78;5059122;28;20052;-71
2021/09/07 04:54:31;;;;;;;25.88;15.45;;;;;;;14.41;52.79;102423.03;5076329;28;20037;-71
2021/09/07 04:56:57;;;;;;;22.85;14.02;;;;;;;14.47;52.72;102428.13;5062670;28;20044;-71
2021/09/07 04:59:22;;;;;;;31.95;15.45;;;;;;;14.48;52.59;102429.84;5063671;28;20040;-71
2021/09/07 05:01:48;;;;;;;29.50;16.17;;;;;;;14.45;52.64;102422.03;5062276;28;20032;-71
2021/09/07 05:04:13;;;;;;;22.80;15.15;;;;;;;14.41;52.60;102426.56;5061439;28;20399;-71
2021/09/07 05:06:39;;;;;;;27.33;16.23;;;;;;;14.43;52.58;102423.84;5062423;28;20025;-71
2021/09/07 05:09:04;;;;;;;27.90;15.77;;;;;;;14.39;52.31;102427.44;5059854;28;20473;-71
2021/09/07 05:11:30;;;;;;;25.65;17.17;;;;;;;14.42;52.62;102432.66;5060565;28;20033;-71
2021/09/07 05:13:56;;;;;;;28.73;17.65;;;;;;;14.43;52.20;102445.75;5061358;28;20039;-71
2021/09/07 05:16:21;;;;;;;26.95;16.23;;;;;;;14.38;52.44;102433.63;5061400;28;20042;-71
2021/09/07 05:18:47;;;;;;;29.63;17.63;;;;;;;14.36;52.61;102442.41;5044027;28;20542;-71
2021/09/07 05:21:12;;;;;;;29.40;15.82;;;;;;;14.40;52.26;102437.09;5061531;28;20055;-71
2021/09/07 05:23:38;;;;;;;29.95;17.40;;;;;;;14.31;52.24;102446.13;5060345;28;20107;-71
2021/09/07 05:26:04;;;;;;;32.15;17.67;;;;;;;14.35;52.44;102443.34;5059729;28;20044;-71
2021/09/07 05:28:30;;;;;;;25.98;14.48;;;;;;;14.40;52.57;102444.97;5061185;28;20060;-71
2021/09/07 05:30:57;;;;;;;27.63;17.17;;;;;;;14.40;52.38;102444.97;5064635;28;20075;-71
2021/09/07 05:33:24;;;;;;;26.42;14.95;;;;;;;14.40;52.59;102440.56;5062428;28;20029;-71
2021/09/07 05:35:49;;;;;;;27.45;16.73;;;;;;;14.40;52.39;102447.59;5064568;28;20040;-71
2021/09/07 05:38:15;;;;;;;29.33;17.20;;;;;;;14.47;52.43;102446.53;5059668;28;20032;-71
2021/09/07 05:40:40;;;;;;;25.92;15.90;;;;;;;14.45;52.38;102449.19;5044906;28;20028;-71
2021/09/07 05:43:06;;;;;;;27.52;16.15;;;;;;;14.55;52.27;102455.06;5061359;28;20036;-71
2021/09/07 05:45:31;;;;;;;32.92;18.13;;;;;;;14.53;51.94;102452.47;5062424;28;20036;-71
2021/09/07 05:47:57;;;;;;;20.48;14.27;;;;;;;14.59;52.38;102453.16;5065657;28;20043;-71
2021/09/07 05:50:22;;;;;;;29.45;16.63;;;;;;;14.56;51.91;102462.03;5065161;28;20071;-71
2021/09/07 05:52:48;;;;;;;25.08;13.52;;;;;;;14.56;52.33;102462.03;5078859;28;20086;-71
2021/09/07 05:55:14;;;;;;;22.40;14.23;;;;;;;14.56;52.38;102464.66;5061231;28;20466;-72
2021/09/07 05:57:39;;;;;;;28.08;15.88;;;;;;;14.58;52.26;102468.09;5063011;28;20482;-71
2021/09/07 06:00:07;;;;;;;29.42;15.75;;;;;;;14.60;52.17;102466.28;5061865;28;20032;-71
2021/09/07 06:02:40;;;;;;;25.73;14.07;;;;;;;14.69;52.50;102471.25;5066483;28;20059;-71
2021/09/07 06:05:06;;;;;;;22.52;14.02;;;;;;;14.77;52.10;102482.41;5064031;28;20036;-71
2021/09/07 06:07:32;;;;;;;24.02;14.25;;;;;;;14.72;51.83;102470.28;5063792;28;20039;-71
2021/09/07 06:09:58;;;;;;;22.40;12.85;;;;;;;14.69;52.49;102480.91;5060257;28;20482;-71
2021/09/07 06:12:24;;;;;;;25.60;13.40;;;;;;;14.86;52.29;102483.03;5045438;28;20122;-71
2021/09/07 06:14:50;;;;;;;18.77;12.50;;;;;;;14.91;52.01;102475.81;5063498;28;20549;-71
2021/09/07 06:17:16;;;;;;;19.52;14.20;;;;;;;14.94;51.53;102478.34;5061875;28;20469;-71
2021/09/07 06:19:41;;;;;;;25.92;13.63;;;;;;;14.91;51.86;102467.94;5061876;28;20390;-71
2021/09/07 06:22:07;;;;;;;23.50;13.30;;;;;;;15.06;51.96;102472.69;5061626;28;20127;-71
2021/09/07 06:24:33;;;;;;;24.77;14.23;;;;;;;15.23;51.62;102474.75;5062326;28;20029;-71
2021/09/07 06:26:58;;;;;;;23.60;12.98;;;;;;;15.30;51.44;102473.63;5048959;28;20094;-71
2021/09/07 06:29:24;;;;;;;23.08;14.05;;;;;;;15.22;50.63;102472.19;5063006;28;20017;-71
2021/09/07 06:31:49;;;;;;;23.27;13.73;;;;;;;15.08;51.27;102473.50;5061317;28;20033;-70
2021/09/07 06:34:15;;;;;;;21.17;13.63;;;;;;;15.04;51.18;102474.50;5044953;28;20029;-71
2021/09/07 06:36:40;;;;;;;19.92;12.07;;;;;;;15.10;51.65;102482.22;5068502;28;20033;-71
2021/09/07 06:39:06;;;;;;;23.70;13.43;;;;;;;15.27;51.49;102478.16;5061426;28;20098;-71
2021/09/07 06:41:31;;;;;;;21.20;11.93;;;;;;;15.32;51.12;102468.31;5062654;28;20036;-71
2021/09/07 06:43:57;;;;;;;22.00;13.05;;;;;;;15.41;50.97;102475.88;5060824;28;20032;-71
2021/09/07 06:46:22;;;;;;;28.05;14.70;;;;;;;15.42;50.70;102467.09;5061555;28;20067;-71
2021/09/07 06:48:48;;;;;;;29.10;14.77;;;;;;;15.46;50.71;102465.19;5065245;28;20077;-71
2021/09/07 06:51:13;;;;;;;25.90;13.60;;;;;;;15.45;50.57;102468.75;5062335;28;20044;-71
2021/09/07 06:53:39;;;;;;;27.83;14.50;;;;;;;15.55;50.37;102465.75;5064406;28;20117;-70
2021/09/07 06:56:04;;;;;;;25.15;15.00;;;;;;;15.48;50.34;102466.00;5062229;28;20766;-71
2021/09/07 06:58:31;;;;;;;26.45;14.70;;;;;;;15.62;50.85;102470.75;5062720;28;20036;-71
2021/09/07 07:00:56;;;;;;;20.88;13.50;;;;;;;15.68;50.38;102465.28;5060433;28;20036;-71
2021/09/07 07:03:22;;;;;;;22.52;13.27;;;;;;;15.64;49.50;102468.94;5056308;28;20106;-71
2021/09/07 07:05:47;;;;;;;21.27;13.75;;;;;;;15.53;50.63;102477.25;5060797;28;20602;-71
2021/09/07 07:08:13;;;;;;;26.10;15.38;;;;;;;15.59;50.60;102480.53;5061595;28;20049;-71
2021/09/07 07:10:38;;;;;;;21.73;12.32;;;;;;;15.68;50.16;102478.47;5058924;28;20037;-71
2021/09/07 07:13:05;;;;;;;20.80;11.60;;;;;;;15.74;50.53;102475.59;5059536;28;20480;-71
2021/09/07 07:15:30;;;;;;;24.38;13.98;;;;;;;15.90;49.99;102484.66;5058954;28;20032;-71
2021/09/07 07:17:56;;;;;;;23.30;14.10;;;;;;;16.02;49.57;102466.69;5057757;28;20035;-71
2021/09/07 07:20:21;;;;;;;24.88;13.18;;;;;;;16.14;48.94;102468.88;5059186;28;20533;-71
2021/09/07 07:22:47;;;;;;;20.00;13.75;;;;;;;16.16;49.29;102475.81;5056786;28;20062;-71
2021/09/07 07:25:13;;;;;;;23.48;14.38;;;;;;;16.28;48.68;102471.81;5058784;28;20055;-71
2021/09/07 07:27:41;;;;;;;15.18;9.63;;;;;;;16.55;48.95;102475.16;5062567;28;20067;-71
2021/09/07 07:30:07;;;;;;;20.10;13.40;;;;;;;16.56;47.94;102471.59;5061644;28;20059;-71
2021/09/07 07:32:33;;;;;;;19.70;12.30;;;;;;;16.47;48.39;102473.75;5061987;28;20074;-71
2021/09/07 07:34:58;;;;;;;21.88;14.27;;;;;;;16.55;47.82;102477.78;5039775;28;20025;-72
2021/09/07 07:37:24;;;;;;;18.77;11.60;;;;;;;16.57;47.77;102477.72;5062621;28;20064;-71
2021/09/07 07:39:50;;;;;;;17.30;10.50;;;;;;;16.77;47.58;102484.88;5063553;28;20080;-71
2021/09/07 07:42:15;;;;;;;27.92;13.30;;;;;;;16.91;47.23;102477.28;5058832;28;20048;-71
2021/09/07 07:44:41;;;;;;;20.75;12.05;;;;;;;16.91;46.57;102485.19;5061953;28;20036;-72
2021/09/07 07:47:07;;;;;;;16.88;9.85;;;;;;;17.02;46.81;102479.44;5044446;28;20051;-71
2021/09/07 07:49:32;;;;;;;17.20;11.82;;;;;;;17.17;45.34;102481.44;5060633;28;20036;-71
2021/09/07 07:51:58;;;;;;;21.83;12.65;;;;;;;17.08;45.55;102483.63;5047348;28;20049;-71
2021/09/07 07:54:24;;;;;;;21.27;10.75;;;;;;;17.41;46.33;102483.94;5067206;28;20044;-71
2021/09/07 07:56:49;;;;;;;18.30;9.38;;;;;;;17.75;46.06;102478.03;5062700;28;20067;-71
2021/09/07 07:59:15;;;;;;;15.40;9.27;;;;;;;18.19;44.91;102484.91;5060443;28;20025;-71
2021/09/07 08:01:41;;;;;;;18.52;11.15;;;;;;;18.35;43.09;102479.75;5058383;28;20053;-71
2021/09/07 08:04:06;;;;;;;19.00;11.35;;;;;;;18.29;43.72;102475.59;5058711;28;20069;-73
2021/09/07 08:06:34;;;;;;;19.52;9.88;;;;;;;18.52;43.80;102484.22;5061292;28;20054;-69
2021/09/07 08:08:59;;;;;;;20.85;10.77;;;;;;;18.43;44.09;102483.75;5059639;28;20033;-70
2021/09/07 08:11:25;;;;;;;20.45;11.52;;;;;;;18.46;43.54;102482.72;5044582;28;20166;-70
2021/09/07 08:13:51;;;;;;;14.60;10.85;;;;;;;18.63;42.91;102479.25;5059859;28;20040;-70
2021/09/07 08:16:17;;;;;;;14.60;9.25;;;;;;;19.20;42.34;102479.09;5059028;28;20374;-70
2021/09/07 08:18:42;;;;;;;18.65;11.07;;;;;;;19.84;40.55;102474.88;5057987;28;20025;-70
2021/09/07 08:21:08;;;;;;;18.25;11.00;;;;;;;19.79;40.64;102482.19;5063369;28;20056;-71
2021/09/07 08:23:33;;;;;;;15.40;8.57;;;;;;;20.29;40.68;102475.94;5076788;28;20033;-70
2021/09/07 08:25:59;;;;;;;16.17;9.15;;;;;;;20.70;39.65;102473.56;5060704;28;20032;-70
2021/09/07 08:28:24;;;;;;;12.43;8.10;;;;;;;21.33;38.00;102475.19;5059799;28;20451;-70
2021/09/07 08:30:50;;;;;;;15.25;10.13;;;;;;;22.39;36.40;102481.00;5065962;28;20060;-70
2021/09/07 08:33:16;;;;;;;19.45;9.90;;;;;;;22.93;34.32;102488.97;5059619;28;20516;-70
2021/09/07 08:35:42;;;;;;;18.20;10.93;;;;;;;23.14;34.24;102488.47;5062926;28;20050;-70
2021/09/07 08:38:08;;;;;;;16.63;9.80;;;;;;;23.93;31.65;102487.41;5063826;28;20052;-70
2021/09/07 08:40:34;;;;;;;14.40;8.63;;;;;;;23.79;32.82;102482.19;5067542;28;20038;-70
2021/09/07 08:43:04;;;;;;;12.70;8.10;;;;;;;23.08;33.81;102488.91;5064613;28;20029;-70
2021/09/07 08:45:30;;;;;;;17.40;9.13;;;;;;;22.73;33.46;102490.31;5062719;28;20430;-71
2021/09/07 08:48:00;;;;;;;16.13;8.88;;;;;;;22.23;35.55;102491.81;5066340;28;20039;-70
2021/09/07 08:50:27;;;;;;;13.02;7.45;;;;;;;22.47;32.82;102494.69;5062415;28;20024;-71
2021/09/07 08:52:56;;;;;;;13.52;8.35;;;;;;;23.01;32.65;102493.81;5063742;28;20033;-70
2021/09/07 08:55:22;;;;;;;15.85;9.27;;;;;;;23.16;32.68;102497.22;5064122;28;20032;-71
2021/09/07 08:57:48;;;;;;;13.10;7.43;;;;;;;23.20;33.30;102504.06;5064021;28;20036;-70
2021/09/07 09:00:14;;;;;;;12.27;6.95;;;;;;;23.44;32.92;102496.22;5062853;28;20052;-70
2021/09/07 09:02:44;;;;;;;10.07;6.53;;;;;;;24.04;31.72;102500.00;5064027;28;20028;-70
2021/09/07 09:05:10;;;;;;;12.00;7.03;;;;;;;23.95;31.08;102495.34;5063570;28;20045;-70
2021/09/07 09:07:37;;;;;;;11.35;7.38;;;;;;;23.27;31.35;102494.69;5080252;28;20044;-70
2021/09/07 09:10:03;;;;;;;10.27;6.60;;;;;;;22.89;31.88;102495.47;5066108;28;20067;-70
2021/09/07 09:12:35;;;;;;;13.65;7.07;;;;;;;23.39;31.51;102496.53;5062868;28;20516;-70
2021/09/07 09:15:12;;;;;;;13.70;6.80;;;;;;;23.30;31.72;102491.84;5063029;28;20517;-70
2021/09/07 09:17:37;;;;;;;12.80;6.43;;;;;;;24.22;30.57;102482.63;5068161;28;20057;-70
2021/09/07 09:20:14;;;;;;;14.75;7.43;;;;;;;24.32;30.23;102487.28;5051279;28;20067;-70
2021/09/07 09:22:50;;;;;;;10.73;7.10;;;;;;;24.73;30.46;102486.06;5066429;28;20029;-70
2021/09/07 09:25:24;;;;;;;10.27;6.80;;;;;;;24.50;29.30;102483.28;5067574;28;20031;-70
2021/09/07 09:28:05;;;;;;;13.05;7.80;;;;;;;24.11;29.99;102487.06;5068697;28;20528;-70
2021/09/07 09:30:36;;;;;;;12.70;7.70;;;;;;;24.29;30.50;102483.03;5066951;28;20025;-70
2021/09/07 09:33:02;;;;;;;;;;;;;;;24.21;29.15;102480.94;5066478;28;20286;-71
2021/09/07 09:35:29;;;;;;;10.48;6.43;;;;;;;24.11;28.60;102490.56;5049027;28;20285;-70
2021/09/07 09:38:01;;;;;;;9.48;6.13;;;;;;;24.40;28.12;102484.91;5046739;28;20028;-70
2021/09/07 09:40:29;;;;;;;14.60;6.60;;;;;;;24.93;27.79;102481.84;5062800;28;20173;-70
2021/09/07 09:42:57;;;;;;;13.98;6.60;;;;;;;25.54;26.44;102476.28;5061895;28;20025;-70
2021/09/07 09:45:30;;;;;;;9.45;6.63;;;;;;;25.33;27.56;102479.66;5078131;28;20490;-71
2021/09/07 09:47:56;;;;;;;13.30;6.78;;;;;;;24.88;28.43;102474.19;5063953;28;20044;-71
2021/09/07 09:50:25;;;;;;;9.35;5.57;;;;;;;24.63;29.42;102467.16;5064065;28;20115;-71
2021/09/07 09:52:51;;;;;;;10.23;5.70;;;;;;;24.16;29.17;102466.19;5049822;28;20520;-71
2021/09/07 09:55:18;;;;;;;12.18;5.75;;;;;;;24.10;28.95;102480.88;5062503;28;20040;-71
2021/09/07 09:57:45;;;;;;;10.38;6.32;;;;;;;23.71;29.66;102477.41;5048428;28;20028;-69
2021/09/07 10:00:15;;;;;;;11.93;6.53;;;;;;;23.38;29.69;102476.13;5079169;28;20025;-70
2021/09/07 10:02:42;;;;;;;12.23;6.55;;;;;;;23.31;30.81;102477.53;5067385;28;20032;-70
2021/09/07 10:05:13;;;;;;;12.38;6.82;;;;;;;23.51;30.25;102469.94;5049550;28;20040;-71
2021/09/07 10:07:38;;;;;;;12.68;6.22;;;;;;;24.33;28.17;102468.47;5062109;28;20458;-70
2021/09/07 10:10:05;;;;;;;11.40;6.35;;;;;;;24.26;29.52;102472.56;5064104;28;20047;-70
2021/09/07 10:12:37;;;;;;;9.68;5.88;;;;;;;25.40;27.34;102467.50;5065929;28;20033;-70
2021/09/07 10:15:12;;;;;;;11.00;6.35;;;;;;;25.86;27.38;102471.03;5062028;28;20028;-70
2021/09/07 10:20:35;;;;;;;10.65;6.32;;;;;;;26.34;26.00;102481.41;5064374;28;20021;-71
2021/09/07 10:25:45;;;;;;;16.75;8.82;;;;;;;25.61;26.98;102472.16;5063266;28;20049;-71
2021/09/07 10:28:12;;;;;;;15.30;8.40;;;;;;;24.90;27.91;102471.41;5064535;28;20447;-71
2021/09/07 10:30:57;;;;;;;14.98;8.98;;;;;;;25.05;28.61;102471.09;5062500;28;20040;-71
2021/09/07 10:33:51;;;;;;;13.90;8.30;;;;;;;25.57;27.24;102459.97;5050210;28;20071;-70
2021/09/07 10:36:25;;;;;;;17.42;8.25;;;;;;;25.79;27.05;102454.59;5048468;28;20552;-71
2021/09/07 10:38:59;;;;;;;21.45;10.88;;;;;;;26.86;26.29;102455.59;5061027;28;20033;-70
2021/09/07 10:41:45;;;;;;;14.48;9.80;;;;;;;27.19;25.44;102451.03;5063596;28;20025;-71
2021/09/07 10:44:16;;;;;;;16.33;9.93;;;;;;;26.91;24.42;102452.50;5064170;28;20742;-71
2021/09/07 10:46:46;;;;;;;;;;;;;;;27.35;24.89;102455.88;5050115;28;20028;-70
2021/09/07 10:49:34;;;;;;;16.83;9.18;;;;;;;27.22;26.15;102453.41;5065185;28;19912;-71
2021/09/07 10:52:19;;;;;;;10.20;6.80;;;;;;;27.60;24.35;102437.59;5065984;28;20028;-71
2021/09/07 10:54:55;;;;;;;14.57;9.07;;;;;;;27.45;23.64;102439.81;5083269;28;20032;-71
2021/09/07 10:57:36;;;;;;;14.40;8.00;;;;;;;26.84;23.88;102437.94;5062920;28;20039;-71
2021/09/07 11:00:13;;;;;;;14.18;8.23;;;;;;;27.08;23.81;102437.66;5062693;28;20760;-71
2021/09/07 11:02:42;;;;;;;15.55;8.43;;;;;;;27.02;24.30;102430.97;5048007;28;20709;-71
2021/09/07 11:05:09;;;;;;;16.67;10.05;;;;;;;26.10;25.29;102428.03;5059641;28;20076;-71
2021/09/07 11:07:36;;;;;;;13.10;8.63;;;;;;;25.14;27.48;102437.44;5060860;28;20044;-71
2021/09/07 11:10:03;;;;;;;13.55;9.23;;;;;;;25.26;27.02;102435.59;5056805;28;20699;-71
2021/09/07 11:12:31;;;;;;;16.85;9.85;;;;;;;25.62;27.16;102426.53;5064855;28;20075;-71
2021/09/07 11:15:07;;;;;;;17.27;9.55;;;;;;;25.25;27.94;102440.09;5061399;28;20119;-70
2021/09/07 11:17:33;;;;;;;17.60;9.30;;;;;;;24.90;29.05;102445.50;5063185;28;20388;-71
2021/09/07 11:20:02;;;;;;;18.23;9.60;;;;;;;24.61;29.05;102445.91;5061071;28;20032;-71